createdAt,value
2022-12-16T00:02:01.348Z,20.17
2022-12-16T00:04:28.089Z,19.90
2022-12-16T00:06:54.951Z,21.80
2022-12-16T00:09:21.556Z,20.45
2022-12-16T00:11:48.004Z,24.42
2022-12-16T00:14:14.549Z,24.13
2022-12-16T00:16:41.254Z,25.83
2022-12-16T00:19:07.897Z,19.45
2022-12-16T00:21:34.988Z,21.95
2022-12-16T00:24:01.425Z,25.75
2022-12-16T00:26:27.890Z,22.42
2022-12-16T00:28:54.803Z,22.10
2022-12-16T00:31:21.427Z,27.20
2022-12-16T00:33:48.030Z,20.10
2022-12-16T00:36:14.541Z,21.50
2022-12-16T00:38:41.022Z,22.17
2022-12-16T00:41:07.628Z,27.38
2022-12-16T00:43:34.837Z,26.02
2022-12-16T00:46:01.610Z,24.83
2022-12-16T00:48:28.201Z,30.98
2022-12-16T00:50:55.646Z,20.30
2022-12-16T00:53:24.174Z,22.50
2022-12-16T00:55:51.694Z,24.85
2022-12-16T00:58:18.601Z,27.52
2022-12-16T01:00:45.145Z,27.98
2022-12-16T01:03:15.441Z,24.17
2022-12-16T01:05:44.522Z,23.83
2022-12-16T01:08:11.052Z,27.15
2022-12-16T01:10:37.480Z,30.83
2022-12-16T01:13:04.266Z,22.58
2022-12-16T01:15:30.762Z,26.17
2022-12-16T01:17:57.249Z,20.27
2022-12-16T01:20:23.959Z,23.83
2022-12-16T01:22:50.571Z,30.15
2022-12-16T01:25:17.173Z,21.90
2022-12-16T01:27:43.732Z,23.73
2022-12-16T01:30:10.983Z,25.38
2022-12-16T01:32:37.928Z,27.05
2022-12-16T01:35:14.112Z,24.90
2022-12-16T01:37:50.211Z,27.60
2022-12-16T01:40:20.548Z,27.02
2022-12-16T01:42:47.112Z,19.30
2022-12-16T01:45:33.552Z,23.92
2022-12-16T01:48:35.604Z,20.27
2022-12-16T01:51:08.214Z,18.90
2022-12-16T01:53:37.298Z,25.60
2022-12-16T01:56:03.993Z,22.65
2022-12-16T01:58:34.794Z,21.10
2022-12-16T02:01:01.900Z,26.02
2022-12-16T02:03:33.753Z,22.58
2022-12-16T02:06:02.078Z,21.65
2022-12-16T02:10:57.863Z,18.60
2022-12-16T02:13:42.473Z,19.00
2022-12-16T02:16:18.217Z,14.38
2022-12-16T02:19:15.373Z,19.00
2022-12-16T02:22:06.842Z,18.38
2022-12-16T02:24:51.443Z,21.05
2022-12-16T02:28:03.489Z,19.98
2022-12-16T02:30:51.367Z,21.83
2022-12-16T02:33:43.551Z,21.38
2022-12-16T02:36:33.332Z,21.55
2022-12-16T02:39:01.601Z,21.42
2022-12-16T02:41:42.054Z,19.33
2022-12-16T02:44:10.740Z,17.80
2022-12-16T02:46:57.460Z,19.15
2022-12-16T02:49:24.087Z,21.20
2022-12-16T02:51:50.660Z,22.63
2022-12-16T02:54:18.145Z,21.52
2022-12-16T02:57:24.473Z,16.85
2022-12-16T02:59:56.845Z,20.70
2022-12-16T03:02:53.531Z,21.98
2022-12-16T03:05:28.506Z,16.73
2022-12-16T03:07:59.104Z,20.25
2022-12-16T03:10:30.448Z,20.67
2022-12-16T03:13:00.106Z,23.52
2022-12-16T03:15:30.327Z,21.13
2022-12-16T03:17:57.993Z,22.27
2022-12-16T03:20:24.700Z,23.15
2022-12-16T03:22:54.104Z,22.67
2022-12-16T03:25:21.430Z,23.77
2022-12-16T03:28:13.541Z,25.53
2022-12-16T03:30:46.513Z,27.25
2022-12-16T03:33:24.635Z,27.10
2022-12-16T03:36:00.014Z,23.40
2022-12-16T03:38:27.954Z,26.13
2022-12-16T03:40:57.038Z,24.60
2022-12-16T03:43:24.816Z,23.02
2022-12-16T03:45:56.823Z,25.80
2022-12-16T03:48:25.736Z,20.50
2022-12-16T03:50:52.309Z,20.55
2022-12-16T03:53:18.897Z,24.48
2022-12-16T03:55:45.571Z,27.30
2022-12-16T03:58:12.011Z,31.25
2022-12-16T04:00:38.459Z,26.08
2022-12-16T04:03:05.264Z,29.05
2022-12-16T04:05:31.967Z,26.13
2022-12-16T04:08:01.798Z,22.95
2022-12-16T04:10:29.150Z,25.27
2022-12-16T04:12:55.624Z,27.65
2022-12-16T04:15:22.293Z,32.78
2022-12-16T04:17:48.845Z,27.85
2022-12-16T04:20:17.831Z,24.70
2022-12-16T04:22:44.511Z,31.10
2022-12-16T04:25:15.356Z,32.22
2022-12-16T04:27:42.229Z,37.88
2022-12-16T04:30:09.484Z,32.17
2022-12-16T04:32:36.018Z,31.27
2022-12-16T04:35:02.560Z,39.25
2022-12-16T04:37:29.062Z,39.67
2022-12-16T04:39:55.624Z,37.80
2022-12-16T04:42:22.277Z,37.47
2022-12-16T04:44:48.884Z,35.17
2022-12-16T04:47:15.328Z,40.53
2022-12-16T04:49:41.909Z,35.85
2022-12-16T04:52:08.361Z,38.55
2022-12-16T04:54:34.886Z,43.70
2022-12-16T04:57:01.405Z,41.40
2022-12-16T04:59:27.926Z,41.28
2022-12-16T05:01:54.525Z,45.53
2022-12-16T05:04:21.202Z,38.22
2022-12-16T05:06:47.696Z,45.97
2022-12-16T05:09:14.328Z,47.25
2022-12-16T05:11:40.985Z,47.90
2022-12-16T05:14:07.465Z,40.58
2022-12-16T05:16:34.178Z,38.72
2022-12-16T05:19:00.737Z,41.55
2022-12-16T05:21:27.406Z,40.15
2022-12-16T05:23:54.226Z,37.92
2022-12-16T05:26:20.863Z,39.30
2022-12-16T05:28:47.337Z,40.55
2022-12-16T05:31:14.076Z,45.00
2022-12-16T05:33:40.834Z,46.55
2022-12-16T05:36:08.187Z,43.42
2022-12-16T05:38:34.798Z,47.00
2022-12-16T05:41:01.296Z,45.17
2022-12-16T05:43:27.771Z,47.45
2022-12-16T05:45:54.443Z,48.65
2022-12-16T05:48:20.937Z,45.70
2022-12-16T05:50:47.402Z,44.75
2022-12-16T05:53:13.913Z,37.35
2022-12-16T05:55:41.920Z,52.88
2022-12-16T05:58:08.870Z,48.67
2022-12-16T06:00:36.338Z,37.38
2022-12-16T06:03:02.860Z,38.63
2022-12-16T06:05:29.473Z,44.20
2022-12-16T06:07:56.040Z,39.30
2022-12-16T06:10:22.672Z,37.95
2022-12-16T06:12:49.245Z,46.65
2022-12-16T06:15:15.777Z,44.85
2022-12-16T06:17:51.422Z,43.15
2022-12-16T06:20:18.075Z,45.00
2022-12-16T06:22:51.112Z,41.80
2022-12-16T06:25:17.901Z,43.75
2022-12-16T06:27:50.645Z,39.90
2022-12-16T06:30:17.141Z,40.97
2022-12-16T06:32:43.591Z,38.10
2022-12-16T06:35:10.107Z,36.40
2022-12-16T06:37:36.910Z,40.28
2022-12-16T06:40:03.710Z,38.60
2022-12-16T06:42:30.254Z,43.58
2022-12-16T06:44:56.768Z,36.05
2022-12-16T06:47:23.318Z,38.15
2022-12-16T06:49:50.001Z,42.75
2022-12-16T06:52:16.628Z,42.42
2022-12-16T06:54:43.227Z,47.60
2022-12-16T06:57:09.715Z,50.40
2022-12-16T06:59:36.235Z,39.03
2022-12-16T07:02:03.952Z,41.08
2022-12-16T07:04:30.649Z,40.97
2022-12-16T07:06:57.274Z,42.65
2022-12-16T07:09:23.827Z,39.28
2022-12-16T07:11:50.293Z,47.75
2022-12-16T07:14:16.742Z,46.17
2022-12-16T07:16:43.415Z,51.05
2022-12-16T07:19:09.964Z,47.70
2022-12-16T07:21:36.729Z,47.20
2022-12-16T07:24:04.195Z,45.70
2022-12-16T07:26:30.690Z,46.95
2022-12-16T07:28:57.257Z,48.78
2022-12-16T07:31:23.818Z,49.17
2022-12-16T07:33:50.323Z,54.63
2022-12-16T07:36:16.876Z,46.55
2022-12-16T07:38:43.561Z,54.15
2022-12-16T07:41:10.293Z,51.58
2022-12-16T07:43:36.842Z,56.33
2022-12-16T07:46:03.606Z,50.60
2022-12-16T07:48:30.113Z,62.25
2022-12-16T07:50:56.775Z,58.97
2022-12-16T07:53:25.643Z,65.05
2022-12-16T07:55:56.084Z,58.53
2022-12-16T07:58:22.761Z,56.70
2022-12-16T08:00:49.279Z,59.42
2022-12-16T08:03:16.030Z,68.30
2022-12-16T08:05:42.524Z,63.10
2022-12-16T08:08:09.056Z,62.08
2022-12-16T08:10:35.765Z,65.57
2022-12-16T08:13:04.263Z,53.25
2022-12-16T08:15:31.057Z,56.80
2022-12-16T08:17:57.547Z,52.88
2022-12-16T08:20:24.164Z,59.05
2022-12-16T08:22:50.627Z,58.00
2022-12-16T08:25:17.928Z,58.90
2022-12-16T08:27:44.455Z,65.47
2022-12-16T08:30:11.482Z,78.93
2022-12-16T08:32:38.058Z,59.60
2022-12-16T08:35:05.109Z,57.72
2022-12-16T08:37:31.574Z,54.55
2022-12-16T08:40:25.585Z,59.13
2022-12-16T08:42:44.801Z,63.15
2022-12-16T08:45:11.345Z,55.75
2022-12-16T08:47:37.854Z,54.95
2022-12-16T08:50:05.439Z,58.03
2022-12-16T08:52:31.920Z,48.72
2022-12-16T08:54:58.502Z,53.25
2022-12-16T08:57:24.958Z,63.03
2022-12-16T08:59:51.449Z,55.08
2022-12-16T09:02:18.565Z,51.03
2022-12-16T09:04:45.594Z,50.15
2022-12-16T09:07:12.176Z,57.60
2022-12-16T09:09:38.675Z,65.60
2022-12-16T09:12:05.414Z,52.58
2022-12-16T09:14:31.919Z,51.15
2022-12-16T09:16:58.485Z,53.47
2022-12-16T09:19:25.019Z,49.47
2022-12-16T09:21:51.715Z,55.05
2022-12-16T09:24:18.291Z,56.60
2022-12-16T09:26:44.909Z,51.40
2022-12-16T09:29:11.507Z,44.55
2022-12-16T09:31:38.166Z,53.92
2022-12-16T09:34:04.863Z,55.78
2022-12-16T09:36:31.416Z,61.92
2022-12-16T09:38:57.851Z,63.75
2022-12-16T09:41:39.795Z,52.53
2022-12-16T09:44:32.386Z,64.60
2022-12-16T09:47:18.279Z,56.53
2022-12-16T09:49:52.555Z,49.75
2022-12-16T09:52:21.268Z,45.92
2022-12-16T09:54:48.076Z,62.88
2022-12-16T09:57:15.537Z,64.07
2022-12-16T09:59:50.098Z,53.58
2022-12-16T10:02:19.182Z,49.55
2022-12-16T10:04:52.124Z,61.20
2022-12-16T10:07:21.015Z,54.92
2022-12-16T10:10:06.361Z,50.08
2022-12-16T10:13:06.571Z,53.35
2022-12-16T10:15:59.524Z,48.40
2022-12-16T10:18:39.415Z,51.28
2022-12-16T10:21:09.755Z,47.10
2022-12-16T10:24:01.971Z,45.42
2022-12-16T10:26:57.339Z,45.17
2022-12-16T10:29:28.218Z,42.88
2022-12-16T10:31:54.995Z,46.00
2022-12-16T10:34:28.631Z,47.13
2022-12-16T10:36:55.457Z,45.15
2022-12-16T10:39:32.212Z,54.63
2022-12-16T10:42:01.766Z,56.55
2022-12-16T10:44:55.731Z,57.78
2022-12-16T10:47:22.539Z,57.78
2022-12-16T10:49:55.004Z,54.58
2022-12-16T10:52:21.672Z,53.13
2022-12-16T10:55:11.292Z,64.20
2022-12-16T10:58:03.568Z,62.97
2022-12-16T11:00:46.217Z,52.92
2022-12-16T11:03:23.418Z,49.80
2022-12-16T11:05:50.410Z,53.28
2022-12-16T11:08:32.660Z,53.30
2022-12-16T11:11:12.972Z,55.38
2022-12-16T11:13:42.131Z,46.83
2022-12-16T11:16:14.335Z,41.72
2022-12-16T11:18:50.110Z,53.53
2022-12-16T11:21:21.887Z,44.15
2022-12-16T11:24:04.983Z,46.60
2022-12-16T11:26:36.417Z,39.22
2022-12-16T11:29:11.186Z,47.25
2022-12-16T11:31:37.867Z,44.95
2022-12-16T11:34:05.211Z,52.00
2022-12-16T11:36:34.098Z,57.20
2022-12-16T11:39:01.984Z,55.05
2022-12-16T11:41:33.844Z,45.00
2022-12-16T11:44:02.250Z,56.30
2022-12-16T11:46:29.243Z,45.88
2022-12-16T11:49:04.954Z,51.17
2022-12-16T11:51:34.640Z,53.58
2022-12-16T11:54:21.055Z,50.88
2022-12-16T11:56:49.521Z,45.25
2022-12-16T11:59:30.656Z,50.00
2022-12-16T12:02:01.308Z,48.92
2022-12-16T12:04:28.048Z,44.10
2022-12-16T12:07:37.421Z,43.50
2022-12-16T12:10:20.489Z,47.58
2022-12-16T12:12:59.027Z,52.70
2022-12-16T12:15:40.841Z,49.13
2022-12-16T12:18:45.243Z,46.38
2022-12-16T12:21:22.586Z,52.75
2022-12-16T12:23:58.080Z,53.83
2022-12-16T12:26:33.434Z,53.25
2022-12-16T12:29:26.490Z,41.70
2022-12-16T12:31:58.502Z,49.35
2022-12-16T12:34:45.660Z,48.28
2022-12-16T12:37:27.593Z,53.35
2022-12-16T12:40:07.450Z,42.90
2022-12-16T12:42:51.647Z,46.33
2022-12-16T12:45:59.008Z,57.35
2022-12-16T12:48:53.035Z,55.90
2022-12-16T12:51:33.597Z,48.30
2022-12-16T12:54:11.860Z,46.47
2022-12-16T12:56:53.316Z,41.83
2022-12-16T12:59:28.684Z,43.30
2022-12-16T13:01:57.047Z,44.35
2022-12-16T13:04:24.366Z,47.70
2022-12-16T13:06:52.394Z,46.17
2022-12-16T13:09:37.580Z,64.63
2022-12-16T13:12:06.879Z,53.72
2022-12-16T13:14:33.342Z,48.90
2022-12-16T13:16:59.981Z,50.88
2022-12-16T13:19:28.994Z,65.25
2022-12-16T13:21:56.418Z,55.97
2022-12-16T13:27:01.864Z,42.13
2022-12-16T13:29:31.274Z,45.78
2022-12-16T13:32:02.598Z,39.72
2022-12-16T13:34:29.278Z,43.13
2022-12-16T13:36:58.152Z,49.63
2022-12-16T13:39:30.165Z,50.38
2022-12-16T13:42:00.417Z,44.97
2022-12-16T13:44:42.146Z,39.42
2022-12-16T13:47:31.167Z,42.22
2022-12-16T13:49:57.853Z,46.00
2022-12-16T13:52:33.046Z,43.42
2022-12-16T13:55:10.975Z,46.47
2022-12-16T13:57:42.262Z,43.95
2022-12-16T14:00:28.852Z,44.85
2022-12-16T14:02:58.524Z,40.70
2022-12-16T14:05:30.162Z,39.20
2022-12-16T14:07:57.878Z,38.10
2022-12-16T14:10:32.447Z,50.78
2022-12-16T14:13:06.292Z,48.60
2022-12-16T14:15:40.267Z,36.40
2022-12-16T14:18:19.137Z,35.03
2022-12-16T14:20:58.988Z,44.35
2022-12-16T14:23:56.258Z,39.75
2022-12-16T14:26:23.901Z,37.13
2022-12-16T14:28:50.455Z,36.63
2022-12-16T14:31:41.286Z,42.90
2022-12-16T14:34:17.778Z,49.08
2022-12-16T14:36:45.470Z,39.95
2022-12-16T14:39:20.052Z,44.97
2022-12-16T14:41:51.030Z,39.95
2022-12-16T14:44:20.702Z,38.92
2022-12-16T14:46:53.105Z,35.22
2022-12-16T14:49:28.535Z,44.60
2022-12-16T14:51:54.998Z,51.78
2022-12-16T14:54:27.329Z,37.92
2022-12-16T14:56:57.624Z,38.75
2022-12-16T14:59:24.166Z,39.03
2022-12-16T15:01:53.360Z,39.75
2022-12-16T15:04:21.083Z,40.15
2022-12-16T15:06:52.877Z,35.45
2022-12-16T15:09:27.515Z,39.05
2022-12-16T15:11:55.689Z,37.90
2022-12-16T15:14:29.274Z,44.35
2022-12-16T15:16:57.194Z,38.63
2022-12-16T15:21:50.529Z,34.25
2022-12-16T15:24:20.667Z,40.05
2022-12-16T15:26:47.187Z,30.45
2022-12-16T15:29:36.535Z,40.15
2022-12-16T15:32:25.183Z,38.33
2022-12-16T15:34:51.690Z,42.25
2022-12-16T15:37:20.281Z,46.58
2022-12-16T15:39:46.950Z,39.67
2022-12-16T15:42:27.886Z,43.08
2022-12-16T15:44:54.448Z,44.85
2022-12-16T15:47:39.108Z,46.08
2022-12-16T15:50:06.681Z,38.55
2022-12-16T15:52:39.249Z,40.17
2022-12-16T15:55:22.381Z,36.50
2022-12-16T15:57:58.376Z,42.53
2022-12-16T16:00:27.737Z,37.10
2022-12-16T16:02:54.431Z,44.03
2022-12-16T16:05:24.753Z,43.55
2022-12-16T16:07:51.382Z,37.95
2022-12-16T16:10:23.629Z,32.33
2022-12-16T16:12:50.198Z,41.88
2022-12-16T16:15:16.703Z,49.17
2022-12-16T16:17:43.657Z,37.28
2022-12-16T16:20:14.897Z,41.30
2022-12-16T16:22:41.385Z,38.88
2022-12-16T16:25:11.576Z,36.35
2022-12-16T16:27:38.056Z,39.47
2022-12-16T16:30:05.157Z,35.42
2022-12-16T16:32:31.714Z,33.75
2022-12-16T16:34:58.187Z,38.13
2022-12-16T16:37:24.741Z,35.53
2022-12-16T16:39:51.364Z,33.88
2022-12-16T16:42:18.054Z,32.55
2022-12-16T16:44:44.599Z,30.25
2022-12-16T16:47:16.760Z,34.15
2022-12-16T16:49:46.567Z,36.25
2022-12-16T16:52:15.940Z,38.28
2022-12-16T16:54:42.515Z,37.05
2022-12-16T16:57:10.067Z,38.03
2022-12-16T16:59:36.604Z,35.30
2022-12-16T17:02:03.120Z,38.22
2022-12-16T17:04:29.733Z,32.13
2022-12-16T17:06:56.315Z,31.20
2022-12-16T17:09:25.536Z,35.63
2022-12-16T17:11:53.910Z,29.30
2022-12-16T17:14:21.378Z,28.52
2022-12-16T17:16:48.011Z,31.35
2022-12-16T17:19:14.500Z,31.60
2022-12-16T17:21:41.113Z,26.08
2022-12-16T17:24:07.638Z,35.50
2022-12-16T17:26:34.521Z,38.38
2022-12-16T17:29:01.019Z,36.38
2022-12-16T17:31:27.673Z,27.75
2022-12-16T17:33:54.206Z,32.25
2022-12-16T17:36:20.772Z,36.05
2022-12-16T17:38:48.563Z,28.30
2022-12-16T17:41:15.059Z,36.95
2022-12-16T17:43:41.644Z,30.02
2022-12-16T17:46:10.955Z,27.20
2022-12-16T17:48:41.436Z,32.38
2022-12-16T17:51:10.649Z,36.03
2022-12-16T17:53:37.330Z,29.02
2022-12-16T17:56:05.119Z,37.67
2022-12-16T17:58:37.996Z,27.48
2022-12-16T18:01:06.542Z,29.13
2022-12-16T18:03:33.734Z,34.30
2022-12-16T18:06:00.594Z,34.88
2022-12-16T18:08:27.148Z,32.53
2022-12-16T18:10:57.940Z,34.85
2022-12-16T18:13:24.384Z,34.95
2022-12-16T18:15:52.044Z,45.60
2022-12-16T18:21:31.606Z,33.22
2022-12-16T18:24:06.707Z,40.33
2022-12-16T18:26:33.182Z,38.83
2022-12-16T18:28:59.701Z,31.60
2022-12-16T18:31:26.389Z,40.70
2022-12-16T18:33:52.972Z,37.40
2022-12-16T18:36:19.544Z,31.33
2022-12-16T18:38:46.152Z,36.33
2022-12-16T18:41:18.804Z,33.88
2022-12-16T18:43:45.388Z,41.83
2022-12-16T18:46:11.884Z,32.78
2022-12-16T18:48:39.182Z,38.08
2022-12-16T18:51:05.844Z,31.37
2022-12-16T18:53:32.876Z,39.38
2022-12-16T18:56:08.245Z,33.88
2022-12-16T18:58:50.771Z,32.13
2022-12-16T19:01:18.002Z,39.35
2022-12-16T19:03:44.540Z,36.08
2022-12-16T19:06:11.019Z,38.47
2022-12-16T19:08:37.628Z,40.13
2022-12-16T19:11:04.181Z,33.83
2022-12-16T19:13:30.662Z,40.05
2022-12-16T19:15:57.989Z,38.72
2022-12-16T19:18:27.514Z,34.72
2022-12-16T19:20:57.374Z,35.70
2022-12-16T19:23:23.945Z,43.03
2022-12-16T19:26:00.177Z,37.97
2022-12-16T19:28:26.788Z,51.25
2022-12-16T19:30:56.924Z,40.78
2022-12-16T19:33:23.459Z,44.80
2022-12-16T19:35:49.999Z,46.15
2022-12-16T19:38:16.500Z,45.08
2022-12-16T19:40:54.871Z,37.55
2022-12-16T19:43:23.213Z,44.03
2022-12-16T19:45:56.376Z,39.03
2022-12-16T19:48:23.202Z,38.25
2022-12-16T19:50:57.989Z,34.97
2022-12-16T19:53:24.444Z,40.80
2022-12-16T19:56:00.971Z,35.40
2022-12-16T19:58:27.507Z,36.55
2022-12-16T20:00:54.018Z,40.03
2022-12-16T20:03:20.639Z,40.78
2022-12-16T20:05:47.183Z,38.63
2022-12-16T20:08:14.630Z,43.55
2022-12-16T20:10:41.183Z,39.50
2022-12-16T20:13:09.753Z,41.45
2022-12-16T20:15:36.275Z,39.78
2022-12-16T20:18:06.044Z,37.28
2022-12-16T20:20:32.615Z,37.47
2022-12-16T20:22:59.287Z,36.58
2022-12-16T20:25:26.394Z,35.90
2022-12-16T20:27:52.919Z,36.37
2022-12-16T20:30:19.913Z,35.17
2022-12-16T20:32:47.355Z,39.63
2022-12-16T20:35:14.226Z,46.20
2022-12-16T20:37:40.772Z,48.22
2022-12-16T20:40:07.806Z,39.83
2022-12-16T20:42:34.471Z,45.28
2022-12-16T20:45:00.939Z,43.47
2022-12-16T20:47:27.418Z,38.47
2022-12-16T20:49:53.889Z,35.83
2022-12-16T20:52:22.768Z,39.28
2022-12-16T20:54:49.280Z,37.08
2022-12-16T20:57:15.777Z,35.25
2022-12-16T20:59:42.335Z,42.95
2022-12-16T21:02:26.821Z,40.40
2022-12-16T21:04:56.865Z,38.83
2022-12-16T21:07:23.443Z,36.83
2022-12-16T21:09:49.976Z,39.40
2022-12-16T21:12:16.766Z,37.03
2022-12-16T21:14:43.322Z,32.83
2022-12-16T21:17:09.920Z,36.70
2022-12-16T21:19:36.438Z,39.15
2022-12-16T21:22:02.956Z,33.85
2022-12-16T21:24:29.506Z,39.60
2022-12-16T21:26:56.322Z,42.30
2022-12-16T21:29:22.817Z,41.83
2022-12-16T21:31:50.257Z,40.47
2022-12-16T21:34:16.885Z,42.33
2022-12-16T21:36:43.648Z,42.65
2022-12-16T21:39:10.096Z,43.38
2022-12-16T21:41:36.666Z,33.67
2022-12-16T21:44:03.132Z,33.53
2022-12-16T21:46:29.701Z,35.97
2022-12-16T21:48:56.374Z,33.80
2022-12-16T21:51:23.290Z,35.45
2022-12-16T21:53:53.481Z,34.90
2022-12-16T21:56:20.201Z,36.40
2022-12-16T21:58:46.772Z,41.95
2022-12-16T22:01:13.425Z,35.78
2022-12-16T22:03:40.858Z,40.65
2022-12-16T22:06:07.739Z,36.80
2022-12-16T22:08:34.273Z,42.92
2022-12-16T22:11:08.795Z,38.03
2022-12-16T22:13:36.465Z,37.38
2022-12-16T22:16:06.126Z,40.95
2022-12-16T22:18:32.615Z,37.15
2022-12-16T22:21:01.611Z,35.45
2022-12-16T22:23:29.393Z,35.85
2022-12-16T22:26:00.662Z,37.45
2022-12-16T22:28:27.143Z,37.53
2022-12-16T22:33:41.642Z,39.00
2022-12-16T22:36:10.151Z,44.35
2022-12-16T22:38:36.705Z,32.47
2022-12-16T22:41:03.463Z,39.60
2022-12-16T22:43:31.201Z,39.72
2022-12-16T22:45:59.813Z,33.20
2022-12-16T22:48:27.297Z,39.15
2022-12-16T22:50:53.734Z,43.85
2022-12-16T22:53:22.910Z,40.33
2022-12-16T22:56:01.684Z,32.78
2022-12-16T22:58:28.556Z,38.50
2022-12-16T23:03:43.041Z,34.97
2022-12-16T23:06:10.689Z,31.08
2022-12-16T23:08:37.218Z,47.45
2022-12-16T23:11:03.796Z,35.40
2022-12-16T23:13:30.264Z,42.90
2022-12-16T23:15:56.935Z,34.85
2022-12-16T23:18:23.566Z,38.50
2022-12-16T23:20:51.639Z,36.65
2022-12-16T23:23:18.682Z,37.80
2022-12-16T23:25:58.464Z,40.40
2022-12-16T23:28:25.121Z,36.60
2022-12-16T23:30:53.759Z,35.22
2022-12-16T23:33:20.422Z,38.00
2022-12-16T23:35:47.670Z,29.88
2022-12-16T23:38:14.181Z,40.80
2022-12-16T23:40:40.815Z,37.85
2022-12-16T23:43:07.492Z,40.28
2022-12-16T23:45:34.217Z,37.50
2022-12-16T23:48:09.935Z,40.08
2022-12-16T23:50:36.406Z,36.03
2022-12-16T23:53:04.581Z,32.17
2022-12-16T23:55:31.220Z,31.38
2022-12-16T23:58:01.512Z,32.28
